sensor_id;sensor_type;location;lat;lon;timestamp;pressure;altitude;pressure_sealevel;temperature;humidity
14117;BME280;7137;51.436;6.544;2023-12-20T00:00:56;101114.84;;;7.51;100.00
14117;BME280;7137;51.436;6.544;2023-12-20T00:03:58;101113.94;;;7.54;100.00
14117;BME280;7137;51.436;6.544;2023-12-20T00:06:59;101116.66;;;7.43;100.00
14117;BME280;7137;51.436;6.544;2023-12-20T00:10:01;101120.19;;;7.37;100.00
14117;BME280;7137;51.436;6.544;2023-12-20T00:13:05;101128.91;;;7.35;100.00
14117;BME280;7137;51.436;6.544;2023-12-20T00:16:07;101121.97;;;7.34;100.00
14117;BME280;7137;51.436;6.544;2023-12-20T00:19:09;101124.56;;;7.34;100.00
14117;BME280;7137;51.436;6.544;2023-12-20T00:22:10;101121.03;;;7.39;100.00
14117;BME280;7137;51.436;6.544;2023-12-20T00:25:12;101127.88;;;7.45;100.00
14117;BME280;7137;51.436;6.544;2023-12-20T00:28:15;101126.97;;;7.51;100.00
14117;BME280;7137;51.436;6.544;2023-12-20T00:31:17;101126.16;;;7.47;100.00
14117;BME280;7137;51.436;6.544;2023-12-20T00:34:18;101129.72;;;7.38;100.00
14117;BME280;7137;51.436;6.544;2023-12-20T00:37:20;101133.97;;;7.42;100.00
14117;BME280;7137;51.436;6.544;2023-12-20T00:40:21;101147.88;;;7.41;100.00
14117;BME280;7137;51.436;6.544;2023-12-20T00:43:24;101140.91;;;7.43;100.00
14117;BME280;7137;51.436;6.544;2023-12-20T00:46:25;101150.47;;;7.41;100.00
14117;BME280;7137;51.436;6.544;2023-12-20T00:49:27;101145.34;;;7.35;100.00
14117;BME280;7137;51.436;6.544;2023-12-20T00:52:28;101145.41;;;7.28;100.00
14117;BME280;7137;51.436;6.544;2023-12-20T00:55:30;101140.25;;;7.25;100.00
14117;BME280;7137;51.436;6.544;2023-12-20T00:58:33;101154.09;;;7.25;100.00
14117;BME280;7137;51.436;6.544;2023-12-20T01:01:34;101153.28;;;7.23;100.00
14117;BME280;7137;51.436;6.544;2023-12-20T01:04:36;101161.88;;;7.27;100.00
14117;BME280;7137;51.436;6.544;2023-12-20T01:07:37;101157.53;;;7.29;100.00
14117;BME280;7137;51.436;6.544;2023-12-20T01:10:39;101154.13;;;7.24;100.00
14117;BME280;7137;51.436;6.544;2023-12-20T01:13:42;101164.50;;;7.25;100.00
14117;BME280;7137;51.436;6.544;2023-12-20T01:16:43;101152.44;;;7.21;100.00
14117;BME280;7137;51.436;6.544;2023-12-20T01:19:45;101161.09;;;7.20;100.00
14117;BME280;7137;51.436;6.544;2023-12-20T01:22:46;101158.56;;;7.12;100.00
14117;BME280;7137;51.436;6.544;2023-12-20T01:25:48;101146.53;;;7.05;100.00
14117;BME280;7137;51.436;6.544;2023-12-20T01:28:51;101156.06;;;7.02;100.00
14117;BME280;7137;51.436;6.544;2023-12-20T01:31:53;101170.03;;;6.92;100.00
14117;BME280;7137;51.436;6.544;2023-12-20T01:34:54;101161.44;;;6.85;100.00
14117;BME280;7137;51.436;6.544;2023-12-20T01:37:56;101157.13;;;6.82;100.00
14117;BME280;7137;51.436;6.544;2023-12-20T01:40:58;101158.94;;;6.73;100.00
14117;BME280;7137;51.436;6.544;2023-12-20T01:44:00;101158.13;;;6.66;100.00
14117;BME280;7137;51.436;6.544;2023-12-20T01:47:02;101160.78;;;6.63;100.00
14117;BME280;7137;51.436;6.544;2023-12-20T01:50:05;101165.09;;;6.63;100.00
14117;BME280;7137;51.436;6.544;2023-12-20T01:53:09;101171.16;;;6.62;100.00
14117;BME280;7137;51.436;6.544;2023-12-20T01:56:12;101170.28;;;6.63;100.00
14117;BME280;7137;51.436;6.544;2023-12-20T01:59:16;101165.94;;;6.65;100.00
14117;BME280;7137;51.436;6.544;2023-12-20T02:02:19;101174.56;;;6.68;100.00
14117;BME280;7137;51.436;6.544;2023-12-20T02:05:21;101166.00;;;6.55;100.00
14117;BME280;7137;51.436;6.544;2023-12-20T02:08:23;101176.41;;;6.52;100.00
14117;BME280;7137;51.436;6.544;2023-12-20T02:11:25;101166.91;;;6.47;100.00
14117;BME280;7137;51.436;6.544;2023-12-20T02:14:28;101173.84;;;6.46;100.00
14117;BME280;7137;51.436;6.544;2023-12-20T02:17:30;101161.72;;;6.47;100.00
14117;BME280;7137;51.436;6.544;2023-12-20T02:20:32;101164.38;;;6.42;100.00
14117;BME280;7137;51.436;6.544;2023-12-20T02:23:35;101170.50;;;6.32;100.00
14117;BME280;7137;51.436;6.544;2023-12-20T02:26:37;101167.00;;;6.39;100.00
14117;BME280;7137;51.436;6.544;2023-12-20T02:29:39;101184.38;;;6.27;100.00
14117;BME280;7137;51.436;6.544;2023-12-20T02:32:40;101184.44;;;6.13;100.00
14117;BME280;7137;51.436;6.544;2023-12-20T02:35:42;101174.13;;;6.07;100.00
14117;BME280;7137;51.436;6.544;2023-12-20T02:38:44;101181.03;;;6.08;100.00
14117;BME280;7137;51.436;6.544;2023-12-20T02:41:47;101180.16;;;6.04;100.00
14117;BME280;7137;51.436;6.544;2023-12-20T02:44:49;101179.41;;;5.91;100.00
14117;BME280;7137;51.436;6.544;2023-12-20T02:47:50;101175.06;;;5.93;100.00
14117;BME280;7137;51.436;6.544;2023-12-20T02:50:52;101180.25;;;5.92;100.00
14117;BME280;7137;51.436;6.544;2023-12-20T02:53:55;101180.22;;;5.97;100.00
14117;BME280;7137;51.436;6.544;2023-12-20T02:56:56;101185.34;;;6.09;100.00
14117;BME280;7137;51.436;6.544;2023-12-20T02:59:58;101187.09;;;6.07;100.00
14117;BME280;7137;51.436;6.544;2023-12-20T03:02:59;101177.56;;;6.04;100.00
14117;BME280;7137;51.436;6.544;2023-12-20T03:06:01;101176.63;;;6.23;100.00
14117;BME280;7137;51.436;6.544;2023-12-20T03:09:04;101175.69;;;6.35;100.00
14117;BME280;7137;51.436;6.544;2023-12-20T03:12:05;101172.28;;;6.24;100.00
14117;BME280;7137;51.436;6.544;2023-12-20T03:15:08;101167.06;;;6.27;100.00
14117;BME280;7137;51.436;6.544;2023-12-20T03:18:09;101166.25;;;6.22;100.00
14117;BME280;7137;51.436;6.544;2023-12-20T03:21:11;101158.47;;;6.23;100.00
14117;BME280;7137;51.436;6.544;2023-12-20T03:24:14;101157.53;;;6.31;100.00
14117;BME280;7137;51.436;6.544;2023-12-20T03:27:15;101155.81;;;6.30;100.00
14117;BME280;7137;51.436;6.544;2023-12-20T03:30:17;101149.88;;;6.11;100.00
14117;BME280;7137;51.436;6.544;2023-12-20T03:33:18;101153.31;;;6.16;100.00
14117;BME280;7137;51.436;6.544;2023-12-20T03:36:20;101166.34;;;6.07;100.00
14117;BME280;7137;51.436;6.544;2023-12-20T03:39:22;101171.53;;;6.02;100.00
14117;BME280;7137;51.436;6.544;2023-12-20T03:42:24;101172.38;;;6.04;100.00
14117;BME280;7137;51.436;6.544;2023-12-20T03:45:26;101152.56;;;5.86;100.00
14117;BME280;7137;51.436;6.544;2023-12-20T03:48:27;101157.75;;;5.88;100.00
14117;BME280;7137;51.436;6.544;2023-12-20T03:51:29;101141.41;;;5.74;100.00
14117;BME280;7137;51.436;6.544;2023-12-20T03:54:32;101139.66;;;5.76;100.00
14117;BME280;7137;51.436;6.544;2023-12-20T03:57:33;101137.97;;;5.78;100.00
14117;BME280;7137;51.436;6.544;2023-12-20T04:00:34;101137.09;;;5.74;100.00
14117;BME280;7137;51.436;6.544;2023-12-20T04:03:36;101140.56;;;5.72;100.00
14117;BME280;7137;51.436;6.544;2023-12-20T04:06:38;101138.84;;;5.71;100.00
14117;BME280;7137;51.436;6.544;2023-12-20T04:09:41;101150.03;;;5.79;100.00
14117;BME280;7137;51.436;6.544;2023-12-20T04:12:43;101150.84;;;5.96;100.00
14117;BME280;7137;51.436;6.544;2023-12-20T04:15:44;101150.00;;;5.86;100.00
14117;BME280;7137;51.436;6.544;2023-12-20T04:18:46;101149.13;;;5.87;100.00
14117;BME280;7137;51.436;6.544;2023-12-20T04:21:47;101146.56;;;5.83;100.00
14117;BME280;7137;51.436;6.544;2023-12-20T04:24:50;101146.56;;;5.81;100.00
14117;BME280;7137;51.436;6.544;2023-12-20T04:27:52;101146.53;;;5.84;100.00
14117;BME280;7137;51.436;6.544;2023-12-20T04:30:53;101156.16;;;5.61;100.00
14117;BME280;7137;51.436;6.544;2023-12-20T04:33:55;101154.38;;;5.72;100.00
14117;BME280;7137;51.436;6.544;2023-12-20T04:36:56;101155.25;;;5.73;100.00
14117;BME280;7137;51.436;6.544;2023-12-20T04:39:59;101156.94;;;5.81;100.00
14117;BME280;7137;51.436;6.544;2023-12-20T04:43:01;101147.47;;;5.71;100.00
14117;BME280;7137;51.436;6.544;2023-12-20T04:46:03;101157.00;;;5.61;100.00
14117;BME280;7137;51.436;6.544;2023-12-20T04:49:04;101170.88;;;5.53;100.00
14117;BME280;7137;51.436;6.544;2023-12-20T04:52:06;101154.47;;;5.54;100.00
14117;BME280;7137;51.436;6.544;2023-12-20T04:55:09;101153.63;;;5.44;100.00
14117;BME280;7137;51.436;6.544;2023-12-20T04:58:11;101147.56;;;5.51;100.00
14117;BME280;7137;51.436;6.544;2023-12-20T05:01:13;101139.78;;;5.47;100.00
14117;BME280;7137;51.436;6.544;2023-12-20T05:04:14;101157.09;;;5.42;100.00
14117;BME280;7137;51.436;6.544;2023-12-20T05:07:16;101163.03;;;5.62;100.00
14117;BME280;7137;51.436;6.544;2023-12-20T05:10:19;101158.66;;;5.76;100.00
14117;BME280;7137;51.436;6.544;2023-12-20T05:13:20;101164.69;;;5.90;100.00
14117;BME280;7137;51.436;6.544;2023-12-20T05:16:22;101157.81;;;5.80;100.00
14117;BME280;7137;51.436;6.544;2023-12-20T05:19:23;101154.31;;;5.87;100.00
14117;BME280;7137;51.436;6.544;2023-12-20T05:22:25;101157.75;;;5.86;100.00
14117;BME280;7137;51.436;6.544;2023-12-20T05:25:29;101140.47;;;5.87;100.00
14117;BME280;7137;51.436;6.544;2023-12-20T05:28:30;101148.25;;;5.96;100.00
14117;BME280;7137;51.436;6.544;2023-12-20T05:31:32;101140.44;;;5.99;100.00
14117;BME280;7137;51.436;6.544;2023-12-20T05:34:33;101137.00;;;5.89;100.00
14117;BME280;7137;51.436;6.544;2023-12-20T05:37:35;101120.59;;;5.90;100.00
14117;BME280;7137;51.436;6.544;2023-12-20T05:40:38;101133.56;;;5.86;100.00
14117;BME280;7137;51.436;6.544;2023-12-20T05:43:39;101137.91;;;5.90;100.00
14117;BME280;7137;51.436;6.544;2023-12-20T05:46:41;101137.00;;;5.97;100.00
14117;BME280;7137;51.436;6.544;2023-12-20T05:49:43;101142.22;;;5.94;100.00
14117;BME280;7137;51.436;6.544;2023-12-20T05:52:45;101134.38;;;6.00;100.00
14117;BME280;7137;51.436;6.544;2023-12-20T05:55:48;101136.13;;;6.00;100.00
14117;BME280;7137;51.436;6.544;2023-12-20T05:58:49;101149.06;;;6.03;100.00
14117;BME280;7137;51.436;6.544;2023-12-20T06:01:51;101144.72;;;6.05;100.00
14117;BME280;7137;51.436;6.544;2023-12-20T06:04:52;101131.78;;;6.06;100.00
14117;BME280;7137;51.436;6.544;2023-12-20T06:07:54;101131.75;;;6.05;100.00
14117;BME280;7137;51.436;6.544;2023-12-20T06:10:58;101129.09;;;6.20;100.00
14117;BME280;7137;51.436;6.544;2023-12-20T06:13:59;101130.88;;;6.12;100.00
14117;BME280;7137;51.436;6.544;2023-12-20T06:17:01;101138.59;;;6.21;100.00
14117;BME280;7137;51.436;6.544;2023-12-20T06:20:03;101146.34;;;6.24;100.00
14117;BME280;7137;51.436;6.544;2023-12-20T06:23:07;101152.31;;;6.37;100.00
14117;BME280;7137;51.436;6.544;2023-12-20T06:26:10;101145.31;;;6.45;100.00
14117;BME280;7137;51.436;6.544;2023-12-20T06:29:12;101153.19;;;6.31;100.00
14117;BME280;7137;51.436;6.544;2023-12-20T06:32:13;101152.22;;;6.46;100.00
14117;BME280;7137;51.436;6.544;2023-12-20T06:35:15;101160.06;;;6.41;100.00
14117;BME280;7137;51.436;6.544;2023-12-20T06:38:18;101165.19;;;6.47;100.00
14117;BME280;7137;51.436;6.544;2023-12-20T06:41:21;101153.94;;;6.51;100.00
14117;BME280;7137;51.436;6.544;2023-12-20T06:44:24;101144.41;;;6.53;100.00
14117;BME280;7137;51.436;6.544;2023-12-20T06:47:26;101151.38;;;6.44;100.00
14117;BME280;7137;51.436;6.544;2023-12-20T06:50:27;101153.03;;;6.54;100.00
14117;BME280;7137;51.436;6.544;2023-12-20T06:53:29;101139.22;;;6.53;100.00
14117;BME280;7137;51.436;6.544;2023-12-20T06:56:32;101134.78;;;6.65;100.00
14117;BME280;7137;51.436;6.544;2023-12-20T06:59:37;101137.44;;;6.57;100.00
14117;BME280;7137;51.436;6.544;2023-12-20T07:02:39;101120.97;;;6.61;100.00
14117;BME280;7137;51.436;6.544;2023-12-20T07:05:40;101127.88;;;6.64;100.00
14117;BME280;7137;51.436;6.544;2023-12-20T07:08:42;101136.47;;;6.69;100.00
14117;BME280;7137;51.436;6.544;2023-12-20T07:11:45;101128.72;;;6.66;100.00
14117;BME280;7137;51.436;6.544;2023-12-20T07:14:46;101130.50;;;6.59;100.00
14117;BME280;7137;51.436;6.544;2023-12-20T07:17:48;101140.81;;;6.68;100.00
14117;BME280;7137;51.436;6.544;2023-12-20T07:20:50;101128.72;;;6.66;100.00
14117;BME280;7137;51.436;6.544;2023-12-20T07:23:51;101129.56;;;6.68;100.00
14117;BME280;7137;51.436;6.544;2023-12-20T07:26:54;101150.31;;;6.71;100.00
14117;BME280;7137;51.436;6.544;2023-12-20T07:29:56;101145.94;;;6.77;100.00
14117;BME280;7137;51.436;6.544;2023-12-20T07:32:57;101145.06;;;6.77;100.00
14117;BME280;7137;51.436;6.544;2023-12-20T07:35:59;101149.41;;;6.75;100.00
14117;BME280;7137;51.436;6.544;2023-12-20T07:39:01;101138.97;;;6.81;100.00
14117;BME280;7137;51.436;6.544;2023-12-20T07:42:05;101156.31;;;6.79;100.00
14117;BME280;7137;51.436;6.544;2023-12-20T07:45:06;101152.78;;;6.84;100.00
14117;BME280;7137;51.436;6.544;2023-12-20T07:48:09;101138.94;;;6.84;100.00
14117;BME280;7137;51.436;6.544;2023-12-20T07:51:10;101148.50;;;6.80;100.00
14117;BME280;7137;51.436;6.544;2023-12-20T07:54:12;101152.72;;;6.92;100.00
14117;BME280;7137;51.436;6.544;2023-12-20T07:57:15;101140.66;;;6.85;100.00
14117;BME280;7137;51.436;6.544;2023-12-20T08:00:17;101146.78;;;6.78;100.00
14117;BME280;7137;51.436;6.544;2023-12-20T08:03:19;101128.63;;;6.78;100.00
14117;BME280;7137;51.436;6.544;2023-12-20T08:06:21;101137.25;;;6.81;100.00
14117;BME280;7137;51.436;6.544;2023-12-20T08:09:22;101145.91;;;6.79;100.00
14117;BME280;7137;51.436;6.544;2023-12-20T08:12:25;101134.69;;;6.77;100.00
14117;BME280;7137;51.436;6.544;2023-12-20T08:15:27;101124.25;;;6.83;100.00
14117;BME280;7137;51.436;6.544;2023-12-20T08:18:29;101130.38;;;6.76;100.00
14117;BME280;7137;51.436;6.544;2023-12-20T08:21:30;101143.25;;;6.85;100.00
14117;BME280;7137;51.436;6.544;2023-12-20T08:24:32;101139.81;;;6.83;100.00
14117;BME280;7137;51.436;6.544;2023-12-20T08:27:38;101151.91;;;6.85;100.00
14117;BME280;7137;51.436;6.544;2023-12-20T08:30:39;101158.78;;;6.91;100.00
14117;BME280;7137;51.436;6.544;2023-12-20T08:33:41;101157.06;;;6.87;100.00
14117;BME280;7137;51.436;6.544;2023-12-20T08:36:42;101176.09;;;6.91;100.00
14117;BME280;7137;51.436;6.544;2023-12-20T08:39:44;101166.59;;;6.91;100.00
14117;BME280;7137;51.436;6.544;2023-12-20T08:42:47;101158.88;;;6.80;100.00
14117;BME280;7137;51.436;6.544;2023-12-20T08:45:48;101167.47;;;6.90;100.00
14117;BME280;7137;51.436;6.544;2023-12-20T08:48:50;101165.75;;;6.86;100.00
14117;BME280;7137;51.436;6.544;2023-12-20T08:51:51;101161.50;;;6.79;100.00
14117;BME280;7137;51.436;6.544;2023-12-20T08:54:53;101158.91;;;6.79;100.00
14117;BME280;7137;51.436;6.544;2023-12-20T08:57:55;101157.97;;;6.84;100.00
14117;BME280;7137;51.436;6.544;2023-12-20T09:00:57;101156.22;;;6.85;100.00
14117;BME280;7137;51.436;6.544;2023-12-20T09:03:58;101146.69;;;6.87;100.00
14117;BME280;7137;51.436;6.544;2023-12-20T09:07:00;101155.44;;;6.80;100.00
14117;BME280;7137;51.436;6.544;2023-12-20T09:10:02;101150.22;;;6.81;100.00
14117;BME280;7137;51.436;6.544;2023-12-20T09:13:05;101153.66;;;6.83;100.00
14117;BME280;7137;51.436;6.544;2023-12-20T09:16:08;101147.59;;;6.83;100.00
14117;BME280;7137;51.436;6.544;2023-12-20T09:19:09;101145.09;;;6.72;100.00
14117;BME280;7137;51.436;6.544;2023-12-20T09:22:11;101139.75;;;6.89;100.00
14117;BME280;7137;51.436;6.544;2023-12-20T09:25:12;101128.56;;;6.82;100.00
14117;BME280;7137;51.436;6.544;2023-12-20T09:28:17;101128.47;;;6.95;100.00
14117;BME280;7137;51.436;6.544;2023-12-20T09:31:18;101123.31;;;6.89;100.00
14117;BME280;7137;51.436;6.544;2023-12-20T09:34:20;101124.03;;;7.06;100.00
14117;BME280;7137;51.436;6.544;2023-12-20T09:37:22;101132.63;;;7.09;100.00
14117;BME280;7137;51.436;6.544;2023-12-20T09:40:26;101127.53;;;7.00;100.00
14117;BME280;7137;51.436;6.544;2023-12-20T09:43:29;101141.31;;;7.07;100.00
14117;BME280;7137;51.436;6.544;2023-12-20T09:46:32;101134.28;;;7.18;100.00
14117;BME280;7137;51.436;6.544;2023-12-20T09:49:36;101135.19;;;7.12;100.00
14117;BME280;7137;51.436;6.544;2023-12-20T09:52:39;101140.53;;;6.97;100.00
14117;BME280;7137;51.436;6.544;2023-12-20T09:55:41;101143.66;;;7.30;100.00
14117;BME280;7137;51.436;6.544;2023-12-20T09:58:44;101143.75;;;7.24;100.00
14117;BME280;7137;51.436;6.544;2023-12-20T10:01:45;101139.41;;;7.24;100.00
14117;BME280;7137;51.436;6.544;2023-12-20T10:04:47;101147.06;;;7.36;100.00
14117;BME280;7137;51.436;6.544;2023-12-20T10:07:49;101144.44;;;7.38;100.00
14117;BME280;7137;51.436;6.544;2023-12-20T10:10:50;101142.50;;;7.55;100.00
14117;BME280;7137;51.436;6.544;2023-12-20T10:13:59;101140.66;;;7.65;100.00
14117;BME280;7137;51.436;6.544;2023-12-20T10:17:02;101138.81;;;7.71;100.00
14117;BME280;7137;51.436;6.544;2023-12-20T10:20:05;101130.91;;;7.81;100.00
14117;BME280;7137;51.436;6.544;2023-12-20T10:23:10;101135.06;;;7.94;100.00
14117;BME280;7137;51.436;6.544;2023-12-20T10:26:19;101130.16;;;7.72;100.00
14117;BME280;7137;51.436;6.544;2023-12-20T10:29:23;101127.50;;;7.77;100.00
14117;BME280;7137;51.436;6.544;2023-12-20T10:32:27;101128.56;;;7.59;100.00
14117;BME280;7137;51.436;6.544;2023-12-20T10:35:28;101136.28;;;7.68;100.00
14117;BME280;7137;51.436;6.544;2023-12-20T10:38:30;101122.31;;;7.77;100.00
14117;BME280;7137;51.436;6.544;2023-12-20T10:41:32;101118.09;;;7.67;100.00
14117;BME280;7137;51.436;6.544;2023-12-20T10:44:36;101115.38;;;7.76;100.00
14117;BME280;7137;51.436;6.544;2023-12-20T10:47:39;101115.59;;;7.58;100.00
14117;BME280;7137;51.436;6.544;2023-12-20T10:50:41;101108.47;;;7.73;100.00
14117;BME280;7137;51.436;6.544;2023-12-20T10:53:44;101118.84;;;7.77;100.00
14117;BME280;7137;51.436;6.544;2023-12-20T10:56:48;101122.34;;;7.72;100.00
14117;BME280;7137;51.436;6.544;2023-12-20T10:59:55;101116.56;;;7.51;100.00
14117;BME280;7137;51.436;6.544;2023-12-20T11:03:00;101114.72;;;7.60;100.00
14117;BME280;7137;51.436;6.544;2023-12-20T11:06:07;101111.22;;;7.63;100.00
14117;BME280;7137;51.436;6.544;2023-12-20T11:09:14;101103.47;;;7.58;100.00
14117;BME280;7137;51.436;6.544;2023-12-20T11:12:20;101095.44;;;7.77;100.00
14117;BME280;7137;51.436;6.544;2023-12-20T11:15:28;101098.63;;;7.95;100.00
14117;BME280;7137;51.436;6.544;2023-12-20T11:18:29;101096.50;;;8.22;100.00
14117;BME280;7137;51.436;6.544;2023-12-20T11:21:31;101090.47;;;8.20;100.00
14117;BME280;7137;51.436;6.544;2023-12-20T11:24:33;101092.72;;;8.43;100.00
14117;BME280;7137;51.436;6.544;2023-12-20T11:27:35;101080.16;;;8.12;100.00
14117;BME280;7137;51.436;6.544;2023-12-20T11:30:47;101084.19;;;8.33;100.00
14117;BME280;7137;51.436;6.544;2023-12-20T11:33:49;101080.13;;;8.17;100.00
14117;BME280;7137;51.436;6.544;2023-12-20T11:36:57;101079.16;;;8.22;100.00
14117;BME280;7137;51.436;6.544;2023-12-20T11:40:00;101084.44;;;8.18;100.00
14117;BME280;7137;51.436;6.544;2023-12-20T11:43:04;101081.09;;;8.08;100.00
14117;BME280;7137;51.436;6.544;2023-12-20T11:46:08;101082.16;;;7.95;100.00
14117;BME280;7137;51.436;6.544;2023-12-20T11:49:10;101075.09;;;8.04;100.00
14117;BME280;7137;51.436;6.544;2023-12-20T11:52:12;101078.78;;;7.90;100.00
14117;BME280;7137;51.436;6.544;2023-12-20T11:55:13;101071.56;;;8.09;100.00
14117;BME280;7137;51.436;6.544;2023-12-20T11:58:15;101069.72;;;8.14;100.00
14117;BME280;7137;51.436;6.544;2023-12-20T12:01:19;101072.56;;;7.98;100.00
14117;BME280;7137;51.436;6.544;2023-12-20T12:04:21;101057.28;;;7.79;100.00
14117;BME280;7137;51.436;6.544;2023-12-20T12:07:23;101062.88;;;8.10;100.00
14117;BME280;7137;51.436;6.544;2023-12-20T12:10:24;101061.84;;;8.20;100.00
14117;BME280;7137;51.436;6.544;2023-12-20T12:13:26;101053.03;;;8.27;100.00
14117;BME280;7137;51.436;6.544;2023-12-20T12:16:30;101051.44;;;8.20;100.00
14117;BME280;7137;51.436;6.544;2023-12-20T12:19:31;101059.19;;;8.23;100.00
14117;BME280;7137;51.436;6.544;2023-12-20T12:22:35;101049.78;;;8.14;100.00
14117;BME280;7137;51.436;6.544;2023-12-20T12:25:37;101049.09;;;8.04;100.00
14117;BME280;7137;51.436;6.544;2023-12-20T12:28:40;101063.81;;;8.04;100.00
14117;BME280;7137;51.436;6.544;2023-12-20T12:31:44;101062.28;;;7.91;100.00
14117;BME280;7137;51.436;6.544;2023-12-20T12:34:46;101047.16;;;8.17;100.00
14117;BME280;7137;51.436;6.544;2023-12-20T12:37:47;101043.75;;;8.11;100.00
14117;BME280;7137;51.436;6.544;2023-12-20T12:40:49;101032.44;;;8.13;100.00
14117;BME280;7137;51.436;6.544;2023-12-20T12:43:53;101023.09;;;8.01;100.00
14117;BME280;7137;51.436;6.544;2023-12-20T12:46:56;101024.81;;;8.04;100.00
14117;BME280;7137;51.436;6.544;2023-12-20T12:49:58;101028.44;;;7.94;100.00
14117;BME280;7137;51.436;6.544;2023-12-20T12:52:59;101023.16;;;7.98;100.00
14117;BME280;7137;51.436;6.544;2023-12-20T12:56:01;101025.13;;;7.83;100.00
14117;BME280;7137;51.436;6.544;2023-12-20T12:59:03;101025.22;;;7.78;100.00
14117;BME280;7137;51.436;6.544;2023-12-20T13:02:07;101019.06;;;7.82;100.00
14117;BME280;7137;51.436;6.544;2023-12-20T13:05:09;101021.09;;;7.63;100.00
14117;BME280;7137;51.436;6.544;2023-12-20T13:08:11;101017.78;;;7.52;100.00
14117;BME280;7137;51.436;6.544;2023-12-20T13:11:12;101008.94;;;7.65;100.00
14117;BME280;7137;51.436;6.544;2023-12-20T13:14:14;100985.00;;;7.42;100.00
14117;BME280;7137;51.436;6.544;2023-12-20T13:17:18;100984.84;;;7.53;100.00
14117;BME280;7137;51.436;6.544;2023-12-20T13:20:19;100977.91;;;7.53;100.00
14117;BME280;7137;51.436;6.544;2023-12-20T13:23:22;100968.69;;;7.32;100.00
14117;BME280;7137;51.436;6.544;2023-12-20T13:26:23;100966.03;;;7.37;100.00
14117;BME280;7137;51.436;6.544;2023-12-20T13:29:25;100967.69;;;7.41;100.00
14117;BME280;7137;51.436;6.544;2023-12-20T13:32:28;100970.25;;;7.44;100.00
14117;BME280;7137;51.436;6.544;2023-12-20T13:35:31;100964.88;;;7.56;100.00
14117;BME280;7137;51.436;6.544;2023-12-20T13:38:32;100969.34;;;7.48;100.00
14117;BME280;7137;51.436;6.544;2023-12-20T13:41:34;100964.16;;;7.45;100.00
14117;BME280;7137;51.436;6.544;2023-12-20T13:44:35;100964.13;;;7.48;100.00
14117;BME280;7137;51.436;6.544;2023-12-20T13:47:38;100955.38;;;7.54;100.00
14117;BME280;7137;51.436;6.544;2023-12-20T13:50:40;100957.22;;;7.45;100.00
14117;BME280;7137;51.436;6.544;2023-12-20T13:53:41;100950.28;;;7.48;100.00
14117;BME280;7137;51.436;6.544;2023-12-20T13:56:43;100943.25;;;7.54;100.00
14117;BME280;7137;51.436;6.544;2023-12-20T13:59:44;100933.78;;;7.50;100.00
14117;BME280;7137;51.436;6.544;2023-12-20T14:02:47;100923.44;;;7.45;100.00
14117;BME280;7137;51.436;6.544;2023-12-20T14:05:50;100924.41;;;7.38;100.00
14117;BME280;7137;51.436;6.544;2023-12-20T14:08:51;100933.19;;;7.33;100.00
14117;BME280;7137;51.436;6.544;2023-12-20T14:11:53;100933.06;;;7.39;100.00
14117;BME280;7137;51.436;6.544;2023-12-20T14:14:55;100929.47;;;7.49;100.00
14117;BME280;7137;51.436;6.544;2023-12-20T14:17:58;100923.22;;;7.61;100.00
14117;BME280;7137;51.436;6.544;2023-12-20T14:21:00;100928.56;;;7.52;100.00
14117;BME280;7137;51.436;6.544;2023-12-20T14:24:01;100923.31;;;7.55;100.00
14117;BME280;7137;51.436;6.544;2023-12-20T14:27:04;100933.66;;;7.56;100.00
14117;BME280;7137;51.436;6.544;2023-12-20T14:30:07;100933.69;;;7.55;100.00
14117;BME280;7137;51.436;6.544;2023-12-20T14:33:10;100929.28;;;7.60;100.00
14117;BME280;7137;51.436;6.544;2023-12-20T14:36:11;100928.19;;;7.73;100.00
14117;BME280;7137;51.436;6.544;2023-12-20T14:39:13;100935.03;;;7.80;100.00
14117;BME280;7137;51.436;6.544;2023-12-20T14:42:14;100929.09;;;7.72;100.00
14117;BME280;7137;51.436;6.544;2023-12-20T14:45:16;100929.13;;;7.69;100.00
14117;BME280;7137;51.436;6.544;2023-12-20T14:48:19;100935.09;;;7.77;100.00
14117;BME280;7137;51.436;6.544;2023-12-20T14:51:21;100937.69;;;7.77;100.00
14117;BME280;7137;51.436;6.544;2023-12-20T14:54:23;100940.13;;;7.86;100.00
14117;BME280;7137;51.436;6.544;2023-12-20T14:57:24;100940.19;;;7.82;100.00
14117;BME280;7137;51.436;6.544;2023-12-20T15:00:26;100940.97;;;7.87;100.00
14117;BME280;7137;51.436;6.544;2023-12-20T15:03:29;100931.44;;;7.89;100.00
14117;BME280;7137;51.436;6.544;2023-12-20T15:06:31;100938.53;;;7.78;100.00
14117;BME280;7137;51.436;6.544;2023-12-20T15:09:33;100928.97;;;7.80;100.00
14117;BME280;7137;51.436;6.544;2023-12-20T15:12:35;100936.56;;;7.92;100.00
14117;BME280;7137;51.436;6.544;2023-12-20T15:15:37;100931.34;;;7.93;100.00
14117;BME280;7137;51.436;6.544;2023-12-20T15:18:39;100913.19;;;7.90;100.00
14117;BME280;7137;51.436;6.544;2023-12-20T15:21:41;100917.53;;;7.90;100.00
14117;BME280;7137;51.436;6.544;2023-12-20T15:24:43;100911.56;;;7.83;100.00
14117;BME280;7137;51.436;6.544;2023-12-20T15:27:46;100906.22;;;7.92;100.00
14117;BME280;7137;51.436;6.544;2023-12-20T15:30:52;100909.69;;;7.93;100.00
14117;BME280;7137;51.436;6.544;2023-12-20T15:33:55;100905.22;;;7.99;100.00
14117;BME280;7137;51.436;6.544;2023-12-20T15:36:56;100902.97;;;7.80;100.00
14117;BME280;7137;51.436;6.544;2023-12-20T15:39:58;100920.06;;;7.94;100.00
14117;BME280;7137;51.436;6.544;2023-12-20T15:43:00;100922.75;;;7.90;100.00
14117;BME280;7137;51.436;6.544;2023-12-20T15:46:02;100909.75;;;7.87;100.00
14117;BME280;7137;51.436;6.544;2023-12-20T15:49:05;100917.63;;;7.84;100.00
14117;BME280;7137;51.436;6.544;2023-12-20T15:52:07;100916.72;;;7.86;100.00
14117;BME280;7137;51.436;6.544;2023-12-20T15:55:08;100917.50;;;7.91;100.00
14117;BME280;7137;51.436;6.544;2023-12-20T15:58:10;100930.38;;;7.99;100.00
14117;BME280;7137;51.436;6.544;2023-12-20T16:01:11;100926.00;;;8.01;100.00
14117;BME280;7137;51.436;6.544;2023-12-20T16:04:14;100919.03;;;8.01;100.00